createdAt,value
2022-12-14T00:01:45.108Z,0.90
2022-12-14T00:04:17.013Z,0.90
2022-12-14T00:06:44.509Z,0.90
2022-12-14T00:09:11.756Z,0.90
2022-12-14T00:11:39.366Z,0.90
2022-12-14T00:14:06.865Z,0.90
2022-12-14T00:16:35.092Z,0.90
2022-12-14T00:19:05.210Z,0.90
2022-12-14T00:21:32.386Z,0.80
2022-12-14T00:24:00.293Z,0.80
2022-12-14T00:26:32.164Z,0.80
2022-12-14T00:29:01.619Z,0.80
2022-12-14T00:31:31.025Z,0.80
2022-12-14T00:33:59.066Z,0.80
2022-12-14T00:36:27.596Z,0.70
2022-12-14T00:38:54.805Z,0.70
2022-12-14T00:41:22.117Z,0.70
2022-12-14T00:43:49.714Z,0.70
2022-12-14T00:46:17.917Z,0.70
2022-12-14T00:48:46.042Z,0.70
2022-12-14T00:51:14.963Z,0.60
2022-12-14T00:53:44.521Z,0.60
2022-12-14T00:56:12.346Z,0.60
2022-12-14T00:58:39.835Z,0.60
2022-12-14T01:01:12.632Z,0.60
2022-12-14T01:03:40.295Z,0.60
2022-12-14T01:06:17.458Z,0.60
2022-12-14T01:08:44.796Z,0.60
2022-12-14T01:11:12.944Z,0.60
2022-12-14T01:13:41.219Z,0.60
2022-12-14T01:16:13.504Z,0.50
2022-12-14T01:18:43.005Z,0.50
2022-12-14T01:21:16.990Z,0.50
2022-12-14T01:23:45.642Z,0.40
2022-12-14T01:26:14.704Z,0.40
2022-12-14T01:28:42.163Z,0.40
2022-12-14T01:31:11.830Z,0.30
2022-12-14T01:33:39.370Z,0.30
2022-12-14T01:36:08.897Z,0.40
2022-12-14T01:38:36.448Z,0.30
2022-12-14T01:41:04.792Z,0.30
2022-12-14T01:43:52.142Z,0.30
2022-12-14T01:46:37.228Z,0.20
2022-12-14T01:49:20.702Z,0.10
2022-12-14T01:52:00.810Z,0.10
2022-12-14T01:54:31.201Z,0.00
2022-12-14T01:56:59.423Z,0.00
2022-12-14T01:59:31.179Z,0.00
2022-12-14T02:02:01.914Z,-0.10
2022-12-14T02:04:30.143Z,-0.10
2022-12-14T02:07:01.117Z,-0.10
2022-12-14T02:09:33.795Z,-0.10
2022-12-14T02:12:04.190Z,-0.10
2022-12-14T02:14:31.497Z,-0.10
2022-12-14T02:16:58.704Z,-0.10
2022-12-14T02:19:26.238Z,-0.20
2022-12-14T02:22:29.947Z,-0.20
2022-12-14T02:25:33.707Z,-0.20
2022-12-14T02:28:13.803Z,-0.20
2022-12-14T02:30:43.177Z,-0.20
2022-12-14T02:33:48.570Z,-0.20
2022-12-14T02:36:38.296Z,-0.30
2022-12-14T02:39:24.147Z,-0.30
2022-12-14T02:42:03.769Z,-0.30
2022-12-14T02:44:55.392Z,-0.30
2022-12-14T02:47:29.352Z,-0.30
2022-12-14T02:50:22.796Z,-0.30
2022-12-14T02:53:05.363Z,-0.30
2022-12-14T02:55:44.490Z,-0.40
2022-12-14T02:58:21.169Z,-0.40
2022-12-14T03:00:49.079Z,-0.40
2022-12-14T03:03:16.483Z,-0.50
2022-12-14T03:05:43.835Z,-0.50
2022-12-14T03:08:13.479Z,-0.50
2022-12-14T03:10:57.868Z,-0.50
2022-12-14T03:13:36.294Z,-0.50
2022-12-14T03:16:14.961Z,-0.50
2022-12-14T03:18:51.418Z,-0.60
2022-12-14T03:21:26.031Z,-0.60
2022-12-14T03:23:54.512Z,-0.60
2022-12-14T03:26:44.198Z,-0.60
2022-12-14T03:29:21.908Z,-0.70
2022-12-14T03:31:57.813Z,-0.70
2022-12-14T03:34:31.450Z,-0.70
2022-12-14T03:37:21.601Z,-0.70
2022-12-14T03:39:49.241Z,-0.40
2022-12-14T03:42:24.083Z,-0.80
2022-12-14T03:45:14.636Z,-0.80
2022-12-14T03:48:19.106Z,-0.90
2022-12-14T03:51:27.921Z,-1.00
2022-12-14T03:54:10.000Z,-1.00
2022-12-14T03:57:00.209Z,-1.00
2022-12-14T03:59:43.342Z,-1.00
2022-12-14T04:02:29.493Z,-1.10
2022-12-14T04:05:19.563Z,-1.10
2022-12-14T04:08:08.488Z,-1.10
2022-12-14T04:11:00.971Z,-1.10
2022-12-14T04:13:55.030Z,-1.20
2022-12-14T04:16:45.061Z,-1.20
2022-12-14T04:19:31.829Z,-1.20
2022-12-14T04:22:04.576Z,-1.30
2022-12-14T04:24:56.240Z,-1.30
2022-12-14T04:27:36.569Z,-1.20
2022-12-14T04:30:06.664Z,-1.20
2022-12-14T04:32:51.495Z,-1.20
2022-12-14T04:35:28.969Z,-1.30
2022-12-14T04:38:03.263Z,-1.30
2022-12-14T04:40:33.270Z,-1.20
2022-12-14T04:43:07.290Z,-1.20
2022-12-14T04:45:51.429Z,-1.20
2022-12-14T04:48:25.816Z,-1.30
2022-12-14T04:51:01.263Z,-1.30
2022-12-14T04:53:33.737Z,-1.80
2022-12-14T04:56:09.024Z,-1.40
2022-12-14T04:58:37.079Z,-1.40
2022-12-14T05:01:29.755Z,-1.40
2022-12-14T05:04:15.824Z,-1.40
2022-12-14T05:06:52.423Z,-1.50
2022-12-14T05:09:19.720Z,-1.50
2022-12-14T05:11:53.677Z,-1.50
2022-12-14T05:14:42.482Z,-1.50
2022-12-14T05:17:10.677Z,-1.50
2022-12-14T05:19:44.356Z,-1.50
2022-12-14T05:22:17.458Z,-1.50
2022-12-14T05:24:44.676Z,-1.50
2022-12-14T05:27:12.025Z,-1.60
2022-12-14T05:29:39.277Z,-1.50
2022-12-14T05:32:06.676Z,-1.50
2022-12-14T05:34:34.121Z,-1.50
2022-12-14T05:37:01.370Z,-1.60
2022-12-14T05:39:28.632Z,-1.60
2022-12-14T05:41:56.082Z,-1.60
2022-12-14T05:44:23.358Z,-1.60
2022-12-14T05:46:50.651Z,-1.60
2022-12-14T05:49:17.959Z,-1.50
2022-12-14T05:51:45.143Z,-1.60
2022-12-14T05:54:12.362Z,-1.60
2022-12-14T05:56:39.582Z,-1.60
2022-12-14T05:59:06.811Z,-1.60
2022-12-14T06:01:34.035Z,-1.60
2022-12-14T06:04:01.325Z,-1.60
2022-12-14T06:06:28.565Z,-1.60
2022-12-14T06:08:55.842Z,-1.60
2022-12-14T06:11:23.703Z,-1.60
2022-12-14T06:13:51.737Z,-1.60
2022-12-14T06:16:22.372Z,-1.70
2022-12-14T06:18:52.203Z,-1.70
2022-12-14T06:21:23.783Z,-1.80
2022-12-14T06:23:51.074Z,-1.80
2022-12-14T06:26:18.651Z,-1.80
2022-12-14T06:28:46.027Z,-1.80
2022-12-14T06:31:25.151Z,-1.90
2022-12-14T06:33:54.649Z,-1.80
2022-12-14T06:36:27.089Z,-1.90
2022-12-14T06:38:55.416Z,-1.90
2022-12-14T06:41:24.271Z,-1.90
2022-12-14T06:43:52.148Z,-2.00
2022-12-14T06:46:21.952Z,-2.00
2022-12-14T06:48:50.927Z,-1.90
2022-12-14T06:51:18.347Z,-1.90
2022-12-14T06:53:46.336Z,-2.00
2022-12-14T06:56:16.132Z,-2.00
2022-12-14T06:58:44.196Z,-2.10
2022-12-14T07:01:20.691Z,-2.10
2022-12-14T07:03:55.075Z,-2.10
2022-12-14T07:06:24.113Z,-2.10
2022-12-14T07:08:56.399Z,-2.20
2022-12-14T07:11:24.719Z,-2.10
2022-12-14T07:13:52.963Z,-2.20
2022-12-14T07:16:29.181Z,-2.20
2022-12-14T07:18:56.859Z,-2.30
2022-12-14T07:21:25.056Z,-2.40
2022-12-14T07:23:52.937Z,-2.40
2022-12-14T07:26:23.152Z,-2.40
2022-12-14T07:28:51.409Z,-2.50
2022-12-14T07:31:24.159Z,-2.50
2022-12-14T07:33:58.855Z,-2.60
2022-12-14T07:36:28.095Z,-2.60
2022-12-14T07:38:56.218Z,-2.60
2022-12-14T07:41:25.861Z,-2.60
2022-12-14T07:43:54.791Z,-2.60
2022-12-14T07:46:24.791Z,-2.60
2022-12-14T07:48:54.651Z,-2.60
2022-12-14T07:51:25.159Z,-2.60
2022-12-14T07:53:53.085Z,-2.60
2022-12-14T07:56:23.364Z,-2.50
2022-12-14T07:58:51.213Z,-2.50
2022-12-14T08:01:29.864Z,-2.50
2022-12-14T08:03:59.562Z,-2.50
2022-12-14T08:06:28.877Z,-2.40
2022-12-14T08:08:56.848Z,-2.40
2022-12-14T08:11:25.132Z,-2.40
2022-12-14T08:13:59.168Z,-2.30
2022-12-14T08:16:27.658Z,-2.30
2022-12-14T08:18:56.260Z,-2.20
2022-12-14T08:21:24.646Z,-2.20
2022-12-14T08:23:53.445Z,-2.20
2022-12-14T08:26:21.695Z,-2.10
2022-12-14T08:28:48.967Z,-2.00
2022-12-14T08:31:18.948Z,-1.90
2022-12-14T08:33:47.245Z,-1.80
2022-12-14T08:36:20.632Z,-1.80
2022-12-14T08:38:53.817Z,-1.60
2022-12-14T08:41:21.480Z,-1.50
2022-12-14T08:43:57.589Z,-1.30
2022-12-14T08:46:26.004Z,-1.00
2022-12-14T08:48:55.060Z,-0.50
2022-12-14T08:51:23.671Z,0.50
2022-12-14T08:53:53.113Z,1.80
2022-12-14T08:56:23.042Z,3.50
2022-12-14T08:58:50.581Z,6.90
2022-12-14T09:01:20.940Z,10.60
2022-12-14T09:03:48.724Z,13.70
2022-12-14T09:06:18.506Z,16.10
2022-12-14T09:08:47.165Z,18.00
2022-12-14T09:11:19.265Z,19.50
2022-12-14T09:13:47.227Z,20.80
2022-12-14T09:16:18.624Z,21.90
2022-12-14T09:18:47.709Z,22.80
2022-12-14T09:21:15.366Z,23.50
2022-12-14T09:23:43.127Z,24.20
2022-12-14T09:26:19.363Z,24.90
2022-12-14T09:28:49.460Z,25.50
2022-12-14T09:31:19.032Z,26.20
2022-12-14T09:33:46.318Z,26.60
2022-12-14T09:36:16.195Z,27.10
2022-12-14T09:38:50.517Z,27.50
2022-12-14T09:41:23.837Z,28.00
2022-12-14T09:44:18.124Z,28.60
2022-12-14T09:47:16.469Z,29.00
2022-12-14T09:49:55.121Z,29.20
2022-12-14T09:52:48.641Z,29.70
2022-12-14T09:55:22.196Z,30.40
2022-12-14T09:57:55.192Z,31.00
2022-12-14T10:00:22.654Z,31.50
2022-12-14T10:03:02.853Z,31.80
2022-12-14T10:05:55.003Z,31.90
2022-12-14T10:08:32.150Z,32.00
2022-12-14T10:11:22.664Z,32.10
2022-12-14T10:14:11.373Z,32.10
2022-12-14T10:17:02.202Z,32.50
2022-12-14T10:19:29.413Z,33.20
2022-12-14T10:22:04.872Z,33.40
2022-12-14T10:24:48.832Z,33.90
2022-12-14T10:27:25.768Z,34.30
2022-12-14T10:30:17.098Z,34.00
2022-12-14T10:32:52.480Z,34.10
2022-12-14T10:35:27.830Z,34.40
2022-12-14T10:38:06.534Z,34.60
2022-12-14T10:40:35.378Z,34.50
2022-12-14T10:43:11.173Z,34.40
2022-12-14T10:45:51.109Z,34.30
2022-12-14T10:48:43.123Z,34.00
2022-12-14T10:51:18.173Z,31.40
2022-12-14T10:53:52.763Z,29.40
2022-12-14T10:56:33.173Z,30.20
2022-12-14T10:59:15.836Z,32.00
2022-12-14T11:01:45.188Z,33.70
2022-12-14T11:04:29.683Z,34.90
2022-12-14T11:07:03.102Z,35.80
2022-12-14T11:09:31.703Z,36.30
2022-12-14T11:12:06.269Z,36.60
2022-12-14T11:14:36.290Z,36.90
2022-12-14T11:17:03.955Z,37.10
2022-12-14T11:19:31.389Z,37.20
2022-12-14T11:22:18.700Z,37.10
2022-12-14T11:24:49.368Z,37.30
2022-12-14T11:27:21.513Z,37.60
2022-12-14T11:29:50.414Z,37.70
2022-12-14T11:32:20.969Z,37.90
2022-12-14T11:34:56.377Z,38.10
2022-12-14T11:37:26.089Z,38.50
2022-12-14T11:40:01.863Z,38.50
2022-12-14T11:42:29.880Z,38.40
2022-12-14T11:45:25.861Z,38.50
2022-12-14T11:48:14.915Z,38.70
2022-12-14T11:50:43.674Z,38.70
2022-12-14T11:53:14.355Z,38.50
2022-12-14T11:55:48.139Z,38.50
2022-12-14T11:58:27.683Z,38.40
2022-12-14T12:01:02.214Z,38.20
2022-12-14T12:03:45.243Z,38.00
2022-12-14T12:06:19.067Z,37.60
2022-12-14T12:08:46.545Z,37.30
2022-12-14T12:11:18.811Z,37.20
2022-12-14T12:13:51.087Z,37.20
2022-12-14T12:16:22.247Z,37.00
2022-12-14T12:19:11.692Z,36.90
2022-12-14T12:21:44.986Z,37.10
2022-12-14T12:24:27.966Z,37.30
2022-12-14T12:26:57.895Z,37.50
2022-12-14T12:29:44.601Z,37.60
2022-12-14T12:32:26.433Z,37.50
2022-12-14T12:35:21.241Z,37.10
2022-12-14T12:37:58.595Z,36.60
2022-12-14T12:40:33.237Z,36.40
2022-12-14T12:43:11.151Z,36.30
2022-12-14T12:46:09.551Z,36.30
2022-12-14T12:48:54.233Z,36.10
2022-12-14T12:51:28.813Z,35.80
2022-12-14T12:54:01.225Z,35.70
2022-12-14T12:56:50.539Z,35.60
2022-12-14T12:59:45.471Z,35.70
2022-12-14T13:02:38.819Z,35.60
2022-12-14T13:05:44.381Z,35.80
2022-12-14T13:08:07.572Z,35.60
2022-12-14T13:10:50.620Z,35.40
2022-12-14T13:13:32.251Z,35.30
2022-12-14T13:16:08.224Z,35.00
2022-12-14T13:18:59.620Z,35.00
2022-12-14T13:21:34.697Z,34.90
2022-12-14T13:24:03.619Z,34.70
2022-12-14T13:26:57.297Z,34.60
2022-12-14T13:29:35.508Z,34.20
2022-12-14T13:32:17.822Z,33.70
2022-12-14T13:35:11.404Z,33.30
2022-12-14T13:37:59.977Z,33.10
2022-12-14T13:40:56.387Z,32.90
2022-12-14T13:43:47.660Z,32.70
2022-12-14T13:46:22.512Z,32.20
2022-12-14T13:48:53.185Z,31.30
2022-12-14T13:51:31.139Z,30.20
2022-12-14T13:54:00.941Z,29.40
2022-12-14T13:56:33.638Z,29.30
2022-12-14T13:59:06.501Z,29.30
2022-12-14T14:01:45.971Z,29.30
2022-12-14T14:04:16.025Z,29.00
2022-12-14T14:06:47.883Z,28.70
2022-12-14T14:09:47.568Z,28.30
2022-12-14T14:12:43.691Z,27.80
2022-12-14T14:15:34.516Z,27.30
2022-12-14T14:18:06.791Z,26.70
2022-12-14T14:20:42.930Z,26.20
2022-12-14T14:23:15.963Z,25.70
2022-12-14T14:25:52.692Z,25.10
2022-12-14T14:28:28.144Z,24.50
2022-12-14T14:30:57.937Z,23.80
2022-12-14T14:33:46.719Z,23.10
2022-12-14T14:36:35.833Z,22.60
2022-12-14T14:39:31.510Z,21.90
2022-12-14T14:41:56.276Z,21.10
2022-12-14T14:44:48.762Z,19.60
2022-12-14T14:47:25.440Z,17.70
2022-12-14T14:50:23.812Z,16.40
2022-12-14T14:53:20.763Z,15.30
2022-12-14T14:56:00.043Z,14.40
2022-12-14T14:58:31.950Z,13.50
2022-12-14T15:01:19.916Z,12.70
2022-12-14T15:04:23.198Z,11.90
2022-12-14T15:06:58.665Z,11.00
2022-12-14T15:09:48.036Z,10.10
2022-12-14T15:12:42.929Z,9.30
2022-12-14T15:15:20.362Z,8.60
2022-12-14T15:17:47.989Z,8.00
2022-12-14T15:20:24.421Z,7.40
2022-12-14T15:22:53.563Z,6.90
2022-12-14T15:25:27.115Z,6.40
2022-12-14T15:27:56.109Z,5.90
2022-12-14T15:30:26.717Z,5.50
2022-12-14T15:33:09.071Z,5.20
2022-12-14T15:35:39.268Z,4.90
2022-12-14T15:38:14.656Z,6.70
2022-12-14T15:40:55.366Z,4.40
2022-12-14T15:43:24.110Z,4.10
2022-12-14T15:45:54.248Z,3.90
2022-12-14T15:48:25.393Z,3.60
2022-12-14T15:50:55.773Z,3.40
2022-12-14T15:54:01.328Z,3.20
2022-12-14T15:56:35.096Z,3.00
2022-12-14T15:59:12.093Z,2.90
2022-12-14T16:01:44.945Z,2.70
2022-12-14T16:04:22.759Z,2.50
2022-12-14T16:06:57.029Z,2.40
2022-12-14T16:09:32.360Z,2.30
2022-12-14T16:12:04.992Z,2.10
2022-12-14T16:14:45.141Z,2.00
2022-12-14T16:17:15.665Z,1.90
2022-12-14T16:20:00.006Z,1.90
2022-12-14T16:22:32.004Z,1.80
2022-12-14T16:25:08.176Z,1.80
2022-12-14T16:27:42.485Z,1.80
2022-12-14T16:30:23.554Z,1.70
2022-12-14T16:33:04.767Z,1.60
2022-12-14T16:35:36.024Z,1.50
2022-12-14T16:38:14.232Z,1.40
2022-12-14T16:40:47.736Z,1.40
2022-12-14T16:43:40.949Z,1.40
2022-12-14T16:46:11.519Z,1.20
2022-12-14T16:48:44.828Z,1.10
2022-12-14T16:51:33.040Z,1.10
2022-12-14T16:54:20.837Z,1.00
2022-12-14T16:56:48.915Z,0.90
2022-12-14T16:59:45.052Z,0.90
2022-12-14T17:02:33.599Z,0.90
2022-12-14T17:05:22.554Z,0.80
2022-12-14T17:07:50.096Z,0.80
2022-12-14T17:10:21.483Z,0.90
2022-12-14T17:12:49.257Z,0.80
2022-12-14T17:15:19.541Z,0.80
2022-12-14T17:17:55.582Z,0.80
2022-12-14T17:20:26.182Z,0.60
2022-12-14T17:22:56.269Z,0.60
2022-12-14T17:25:23.476Z,0.50
2022-12-14T17:27:50.757Z,0.50
2022-12-14T17:30:20.794Z,0.40
2022-12-14T17:32:48.699Z,0.40
2022-12-14T17:35:22.000Z,0.40
2022-12-14T17:37:49.560Z,0.40
2022-12-14T17:40:17.000Z,0.40
2022-12-14T17:42:50.956Z,0.30
2022-12-14T17:45:22.341Z,0.30
2022-12-14T17:47:49.594Z,0.30
2022-12-14T17:50:17.943Z,0.20
2022-12-14T17:52:45.752Z,0.30
2022-12-14T17:55:27.679Z,0.30
2022-12-14T17:57:55.596Z,0.30
2022-12-14T18:00:47.233Z,0.30
2022-12-14T18:03:16.886Z,0.30
2022-12-14T18:05:48.796Z,0.30
2022-12-14T18:08:17.711Z,0.30
2022-12-14T18:10:46.029Z,0.30
2022-12-14T18:13:13.404Z,0.40
2022-12-14T18:15:50.071Z,0.30
2022-12-14T18:18:19.591Z,0.30
2022-12-14T18:20:53.875Z,0.30
2022-12-14T18:23:22.150Z,0.30
2022-12-14T18:25:54.864Z,0.30
2022-12-14T18:28:22.217Z,0.20
2022-12-14T18:30:56.463Z,0.10
2022-12-14T18:33:26.100Z,0.10
2022-12-14T18:35:55.579Z,0.10
2022-12-14T18:38:23.230Z,0.10
2022-12-14T18:40:53.118Z,0.10
2022-12-14T18:43:23.907Z,0.20
2022-12-14T18:45:53.263Z,0.10
2022-12-14T18:48:21.272Z,0.10
2022-12-14T18:50:49.646Z,0.10
2022-12-14T18:53:19.541Z,0.10
2022-12-14T18:55:49.347Z,0.00
2022-12-14T18:58:22.460Z,0.00
2022-12-14T19:00:51.642Z,0.10
2022-12-14T19:03:19.362Z,0.10
2022-12-14T19:05:47.178Z,0.20
2022-12-14T19:08:14.572Z,0.40
2022-12-14T19:10:47.668Z,0.40
2022-12-14T19:13:25.455Z,0.60
2022-12-14T19:15:54.443Z,0.70
2022-12-14T19:18:21.877Z,0.70
2022-12-14T19:20:49.387Z,0.80
2022-12-14T19:23:18.824Z,0.80
2022-12-14T19:25:47.004Z,0.80
2022-12-14T19:28:31.375Z,0.80
2022-12-14T19:31:00.589Z,0.80
2022-12-14T19:33:29.295Z,0.90
2022-12-14T19:35:56.951Z,0.90
2022-12-14T19:38:24.226Z,1.00
2022-12-14T19:41:04.515Z,1.10
2022-12-14T19:43:32.152Z,1.10
2022-12-14T19:45:59.916Z,1.10
2022-12-14T19:48:27.187Z,1.20
2022-12-14T19:50:54.449Z,1.30
2022-12-14T19:53:27.506Z,1.20
2022-12-14T19:55:54.760Z,1.30
2022-12-14T19:58:22.850Z,1.30
2022-12-14T20:00:51.402Z,1.20
2022-12-14T20:03:18.801Z,1.20
2022-12-14T20:05:54.023Z,1.20
2022-12-14T20:08:22.381Z,1.10
2022-12-14T20:10:49.790Z,1.10
2022-12-14T20:13:19.215Z,1.10
2022-12-14T20:15:51.364Z,1.10
2022-12-14T20:18:19.801Z,1.20
2022-12-14T20:20:49.542Z,1.10
2022-12-14T20:23:18.878Z,1.10
2022-12-14T20:25:46.146Z,1.10
2022-12-14T20:28:14.091Z,1.00
2022-12-14T20:30:45.719Z,1.10
2022-12-14T20:33:13.948Z,1.10
2022-12-14T20:35:41.196Z,1.10
2022-12-14T20:38:08.449Z,1.00
2022-12-14T20:40:39.059Z,1.00
2022-12-14T20:43:07.368Z,1.00
2022-12-14T20:45:39.544Z,1.00
2022-12-14T20:48:07.478Z,1.00
2022-12-14T20:50:36.583Z,1.00
2022-12-14T20:53:04.606Z,1.00
2022-12-14T20:55:31.924Z,1.10
2022-12-14T20:57:59.158Z,1.00
2022-12-14T21:00:27.519Z,1.00
2022-12-14T21:02:54.770Z,1.00
2022-12-14T21:05:22.155Z,1.00
2022-12-14T21:07:49.345Z,1.00
2022-12-14T21:10:18.899Z,1.00
2022-12-14T21:12:48.761Z,1.10
2022-12-14T21:15:16.248Z,1.10
2022-12-14T21:17:43.416Z,1.10
2022-12-14T21:29:31.484Z,0.20
2022-12-14T21:31:59.017Z,-0.10
2022-12-14T21:34:26.352Z,-0.20
2022-12-14T21:36:53.557Z,-0.10
2022-12-14T21:39:20.774Z,-0.10
2022-12-14T21:42:06.708Z,0.10
2022-12-14T21:44:34.894Z,0.20
2022-12-14T21:47:03.515Z,0.20
2022-12-14T21:49:30.714Z,0.20
2022-12-14T21:51:58.388Z,0.20
2022-12-14T21:54:25.837Z,0.20
2022-12-14T21:57:11.872Z,0.20
2022-12-14T21:59:45.295Z,0.30
2022-12-14T22:02:24.745Z,0.30
2022-12-14T22:04:55.979Z,0.20
2022-12-14T22:07:26.187Z,0.30
2022-12-14T22:09:53.354Z,0.30
2022-12-14T22:12:20.554Z,0.20
2022-12-14T22:14:48.954Z,0.20
2022-12-14T22:17:16.505Z,0.20
2022-12-14T22:19:43.716Z,0.20
2022-12-14T22:22:17.264Z,0.10
2022-12-14T22:24:47.347Z,0.10
2022-12-14T22:27:14.843Z,0.10
2022-12-14T22:29:42.073Z,0.10
2022-12-14T22:32:11.883Z,0.10
2022-12-14T22:34:39.193Z,0.20
2022-12-14T22:37:06.542Z,0.20
2022-12-14T22:39:33.840Z,0.20
2022-12-14T22:42:01.035Z,0.20
2022-12-14T22:44:28.262Z,0.20
2022-12-14T22:46:55.587Z,0.20
2022-12-14T22:49:22.969Z,0.30
2022-12-14T22:51:50.515Z,0.30
2022-12-14T22:54:24.838Z,0.30
2022-12-14T22:57:02.937Z,0.30
2022-12-14T22:59:36.828Z,0.30
2022-12-14T23:02:04.880Z,0.40
2022-12-14T23:04:32.651Z,0.40
2022-12-14T23:07:02.180Z,0.50
2022-12-14T23:09:48.251Z,0.40
2022-12-14T23:12:34.341Z,0.50
2022-12-14T23:15:20.450Z,0.60
2022-12-14T23:18:06.605Z,0.70
2022-12-14T23:20:52.323Z,0.70
2022-12-14T23:23:38.164Z,0.70
2022-12-14T23:26:24.165Z,0.70
2022-12-14T23:29:09.962Z,0.70
2022-12-14T23:31:55.974Z,0.60
2022-12-14T23:34:41.992Z,0.60
2022-12-14T23:37:27.665Z,0.60
2022-12-14T23:40:13.715Z,0.60
2022-12-14T23:42:59.549Z,0.50
2022-12-14T23:45:45.288Z,0.40
2022-12-14T23:48:31.047Z,0.40
2022-12-14T23:51:19.576Z,0.30
2022-12-14T23:54:05.619Z,0.30
2022-12-14T23:56:51.893Z,0.30
2022-12-14T23:59:37.839Z,0.30
